Time;durP1;ratioP1;P1;durP2;ratioP2;P2;SDS_P1;SDS_P2;PMS_P1;PMS_P2;Temp;Humidity;BMP_temperature;BMP_pressure;BME280_temperature;BME280_humidity;BME280_pressure;Samples;Min_cycle;Max_cycle;Signal;HPM_P1;HPM_P2
2022/07/22 00:01:48;;;;;;;8.90;8.20;;;;;;;;;;5041080;28;20493;-93
2022/07/22 00:04:40;;;;;;;11.40;10.40;;;;;;;;;;5050393;28;20471;-92
2022/07/22 00:07:09;;;;;;;10.73;9.57;;;;;;;;;;5018199;28;20433;-93
2022/07/22 00:09:48;;;;;;;13.67;12.27;;;;;;;;;;5045651;28;20437;-93
2022/07/22 00:12:50;;;;;;;13.90;12.50;;;;;;;;;;5020258;28;20479;-92
2022/07/22 00:15:26;;;;;;;12.43;11.07;;;;;;;;;;5032615;28;20506;-92
2022/07/22 00:17:55;;;;;;;13.77;12.37;;;;;;;;;;5026267;28;20462;-92
2022/07/22 00:20:21;;;;;;;12.60;11.40;;;;;;;;;;5056976;28;20442;-92
2022/07/22 00:22:59;;;;;;;13.50;12.30;;;;;;;;;;5039396;28;20419;-89
2022/07/22 00:25:37;;;;;;;13.90;12.70;;;;;;;;;;5031274;28;20423;-92
2022/07/22 00:28:12;;;;;;;11.80;10.73;;;;;;;;;;5022105;28;20479;-92
2022/07/22 00:30:53;;;;;;;13.90;12.60;;;;;;;;;;5004869;28;20427;-91
2022/07/22 00:33:22;;;;;;;14.87;13.17;;;;;;;;;;5029327;28;20863;-92
2022/07/22 00:35:48;;;;;;;12.43;11.20;;;;;;;;;;5042227;28;20447;-90
2022/07/22 00:38:14;;;;;;;10.27;9.37;;;;;;;;;;5054542;28;20765;-92
2022/07/22 00:40:40;;;;;;;10.90;10.00;;;;;;;;;;5048268;28;20471;-91
2022/07/22 00:43:06;;;;;;;11.33;10.43;;;;;;;;;;5027189;28;20414;-93
2022/07/22 00:45:32;;;;;;;9.57;8.77;;;;;;;;;;5025274;28;20414;-92
2022/07/22 00:47:58;;;;;;;9.83;9.00;;;;;;;;;;5045261;28;20430;-92
2022/07/22 00:50:25;;;;;;;9.60;8.73;;;;;;;;;;5026979;28;20530;-92
2022/07/22 00:52:51;;;;;;;9.30;8.33;;;;;;;;;;5041958;28;20441;-92
2022/07/22 00:55:17;;;;;;;8.93;8.33;;;;;;;;;;5048400;28;20454;-92
2022/07/22 00:57:44;;;;;;;9.53;8.70;;;;;;;;;;5042565;28;20749;-92
2022/07/22 01:00:12;;;;;;;8.83;8.17;;;;;;;;;;5027774;28;20454;-92
2022/07/22 01:02:39;;;;;;;13.20;10.77;;;;;;;;;;5045783;28;20478;-92
2022/07/22 01:05:05;;;;;;;14.17;11.77;;;;;;;;;;5046521;28;20433;-92
2022/07/22 01:07:31;;;;;;;12.30;11.30;;;;;;;;;;5040316;28;20426;-92
2022/07/22 01:09:58;;;;;;;12.37;11.13;;;;;;;;;;5040114;28;20434;-93
2022/07/22 01:12:24;;;;;;;15.77;14.17;;;;;;;;;;5046350;28;20480;-93
2022/07/22 01:14:50;;;;;;;22.43;19.17;;;;;;;;;;5038398;28;20442;-92
2022/07/22 01:17:16;;;;;;;26.77;19.17;;;;;;;;;;5044457;28;20525;-92
2022/07/22 01:19:42;;;;;;;31.30;20.57;;;;;;;;;;5048134;28;20426;-92
2022/07/22 01:22:13;;;;;;;30.20;21.53;;;;;;;;;;5037935;28;20425;-92
2022/07/22 01:24:39;;;;;;;32.03;24.20;;;;;;;;;;5042267;28;20493;-92
2022/07/22 01:27:08;;;;;;;29.03;22.63;;;;;;;;;;5037123;28;20446;-92
2022/07/22 01:29:34;;;;;;;29.87;22.90;;;;;;;;;;5064075;28;20444;-93
2022/07/22 01:32:00;;;;;;;26.67;22.30;;;;;;;;;;5056196;28;20437;-92
2022/07/22 01:34:28;;;;;;;26.60;22.93;;;;;;;;;;5032756;28;20414;-92
2022/07/22 01:36:55;;;;;;;30.03;22.30;;;;;;;;;;5054358;28;20460;-92
2022/07/22 01:39:21;;;;;;;28.70;23.37;;;;;;;;;;5065077;28;20501;-93
2022/07/22 01:41:47;;;;;;;27.53;23.10;;;;;;;;;;5067755;28;20427;-92
2022/07/22 01:44:15;;;;;;;31.90;24.13;;;;;;;;;;5045423;28;20431;-92
2022/07/22 01:46:41;;;;;;;31.17;24.00;;;;;;;;;;5042870;28;20433;-92
2022/07/22 01:49:07;;;;;;;28.57;23.07;;;;;;;;;;5050736;28;20414;-92
2022/07/22 01:51:35;;;;;;;28.97;23.07;;;;;;;;;;5052678;28;20421;-93
2022/07/22 01:54:02;;;;;;;25.97;22.57;;;;;;;;;;5051254;28;20434;-92
2022/07/22 01:56:35;;;;;;;26.13;20.97;;;;;;;;;;5063960;28;20437;-92
2022/07/22 01:59:09;;;;;;;24.27;18.63;;;;;;;;;;5047972;28;21167;-92
2022/07/22 02:01:37;;;;;;;22.90;17.47;;;;;;;;;;5008978;28;20547;-92
2022/07/22 02:04:06;;;;;;;17.87;15.50;;;;;;;;;;5036062;28;21015;-92
2022/07/22 02:06:32;;;;;;;15.90;14.43;;;;;;;;;;5040542;28;20434;-92
2022/07/22 02:09:03;;;;;;;13.37;11.97;;;;;;;;;;5027922;28;20500;-94
2022/07/22 02:11:29;;;;;;;12.93;11.67;;;;;;;;;;5029835;28;20450;-92
2022/07/22 02:13:55;;;;;;;10.97;9.87;;;;;;;;;;5040754;28;20499;-92
2022/07/22 02:16:38;;;;;;;11.07;9.93;;;;;;;;;;5028557;28;20494;-93
2022/07/22 02:19:04;;;;;;;11.33;9.30;;;;;;;;;;5024318;28;20873;-93
2022/07/22 02:21:37;;;;;;;9.90;8.93;;;;;;;;;;5034443;28;20418;-93
2022/07/22 02:24:20;;;;;;;9.57;8.33;;;;;;;;;;5015002;28;20435;-92
2022/07/22 02:26:57;;;;;;;9.50;8.30;;;;;;;;;;5057926;28;20447;-93
2022/07/22 02:29:50;;;;;;;9.20;8.30;;;;;;;;;;5016842;28;20469;-94
2022/07/22 02:32:42;;;;;;;10.20;7.33;;;;;;;;;;4988628;28;20444;-93
2022/07/22 02:35:13;;;;;;;10.27;7.63;;;;;;;;;;5008857;28;20420;-93
2022/07/22 02:37:47;;;;;;;7.80;7.20;;;;;;;;;;5016263;28;20483;-93
2022/07/22 02:40:39;;;;;;;;;;;;;;;;;;;;;
2022/07/22 02:43:10;;;;;;;9.83;7.30;;;;;;;;;;5010235;28;20451;-93
2022/07/22 02:45:45;;;;;;;8.67;7.67;;;;;;;;;;5028492;28;21040;-94
2022/07/22 02:48:45;;;;;;;8.20;7.40;;;;;;;;;;5021632;28;20431;-93
2022/07/22 02:51:17;;;;;;;8.83;8.03;;;;;;;;;;5029112;28;20871;-94
2022/07/22 02:56:50;;;;;;;8.87;7.87;;;;;;;;;;5012700;28;20416;-92
2022/07/22 02:59:38;;;;;;;;;;;;;;;;;;;;;
2022/07/22 03:02:16;;;;;;;9.10;7.70;;;;;;;;;;4993453;28;20473;-92
2022/07/22 03:04:50;;;;;;;10.83;9.73;;;;;;;;;;4995215;28;20453;-92
2022/07/22 03:07:51;;;;;;;13.40;8.87;;;;;;;;;;5018233;28;20437;-92
2022/07/22 03:10:27;;;;;;;9.30;8.40;;;;;;;;;;4997956;28;20429;-93
2022/07/22 03:12:56;;;;;;;9.00;8.30;;;;;;;;;;4993239;28;20419;-93
2022/07/22 03:15:51;;;;;;;9.70;8.30;;;;;;;;;;5025053;28;20435;-91
2022/07/22 03:26:13;;;;;;;11.83;8.17;;;;;;;;;;5041155;22;20465;-93
2022/07/22 03:28:47;;;;;;;8.40;7.60;;;;;;;;;;5057717;28;20469;-92
2022/07/22 03:31:19;;;;;;;8.20;7.50;;;;;;;;;;5061836;28;20452;-92
2022/07/22 03:33:45;;;;;;;8.13;7.33;;;;;;;;;;5071165;28;20440;-94
2022/07/22 03:36:17;;;;;;;9.43;8.53;;;;;;;;;;5088893;28;20424;-92
2022/07/22 03:38:46;;;;;;;7.33;6.57;;;;;;;;;;5092773;28;20457;-94
2022/07/22 03:41:18;;;;;;;8.37;6.63;;;;;;;;;;5073851;28;20416;-92
2022/07/22 03:43:50;;;;;;;6.90;6.00;;;;;;;;;;5069761;28;20422;-93
2022/07/22 03:46:19;;;;;;;8.17;6.63;;;;;;;;;;5080851;28;20479;-91
2022/07/22 03:48:47;;;;;;;6.80;6.20;;;;;;;;;;5084969;28;20417;-93
2022/07/22 03:51:16;;;;;;;6.40;5.83;;;;;;;;;;5079645;28;20443;-92
2022/07/22 03:53:42;;;;;;;9.20;7.00;;;;;;;;;;5077173;28;20420;-92
2022/07/22 03:56:24;;;;;;;8.30;6.57;;;;;;;;;;5076685;28;20409;-91
2022/07/22 03:58:53;;;;;;;5.07;4.77;;;;;;;;;;5058398;28;20522;-92
2022/07/22 04:01:19;;;;;;;5.90;5.50;;;;;;;;;;5090141;28;20467;-91
2022/07/22 04:03:48;;;;;;;5.47;5.10;;;;;;;;;;5077790;28;20441;-91
2022/07/22 04:06:20;;;;;;;7.10;6.57;;;;;;;;;;5093809;28;20445;-91
2022/07/22 04:08:48;;;;;;;5.87;5.40;;;;;;;;;;5074400;28;20479;-91
2022/07/22 04:11:15;;;;;;;5.93;5.20;;;;;;;;;;5084822;28;20475;-90
2022/07/22 04:13:41;;;;;;;11.37;5.93;;;;;;;;;;5076753;28;21032;-90
2022/07/22 04:16:07;;;;;;;7.00;5.57;;;;;;;;;;5051690;28;20572;-91
2022/07/22 04:18:33;;;;;;;7.27;5.07;;;;;;;;;;5064882;28;20492;-90
2022/07/22 04:20:59;;;;;;;5.93;5.10;;;;;;;;;;5059353;28;20449;-90
2022/07/22 04:23:25;;;;;;;5.60;5.30;;;;;;;;;;5064759;28;20413;-88
2022/07/22 04:25:51;;;;;;;5.47;5.13;;;;;;;;;;5062276;28;21001;-90
2022/07/22 04:28:17;;;;;;;8.83;5.50;;;;;;;;;;5060809;28;20482;-90
2022/07/22 04:30:44;;;;;;;5.53;4.80;;;;;;;;;;5068596;28;20904;-91
2022/07/22 04:33:10;;;;;;;5.67;5.23;;;;;;;;;;5053196;28;20418;-90
2022/07/22 04:35:36;;;;;;;5.20;4.43;;;;;;;;;;5080459;28;20458;-87
2022/07/22 04:38:02;;;;;;;6.63;4.77;;;;;;;;;;5079737;28;20490;-89
2022/07/22 04:40:28;;;;;;;5.80;4.90;;;;;;;;;;5081477;28;20425;-91
2022/07/22 04:42:54;;;;;;;4.83;4.50;;;;;;;;;;5076100;28;20496;-91
2022/07/22 04:45:20;;;;;;;8.23;4.83;;;;;;;;;;5057532;28;20429;-90
2022/07/22 04:47:46;;;;;;;6.13;5.60;;;;;;;;;;5072063;28;20441;-90
2022/07/22 04:50:12;;;;;;;6.40;5.87;;;;;;;;;;5065085;28;20429;-89
2022/07/22 04:52:38;;;;;;;7.53;5.90;;;;;;;;;;5073844;28;20417;-90
2022/07/22 04:55:04;;;;;;;7.27;5.40;;;;;;;;;;5052404;28;20966;-89
2022/07/22 04:57:33;;;;;;;6.57;5.90;;;;;;;;;;5057331;28;20470;-89
2022/07/22 04:59:59;;;;;;;8.97;6.07;;;;;;;;;;5062242;28;20447;-90
2022/07/22 05:02:25;;;;;;;9.30;6.73;;;;;;;;;;5075754;28;20444;-89
2022/07/22 05:04:51;;;;;;;7.77;6.40;;;;;;;;;;5059795;28;20453;-92
2022/07/22 05:07:17;;;;;;;9.40;5.93;;;;;;;;;;5079479;28;20417;-90
2022/07/22 05:09:43;;;;;;;7.27;6.07;;;;;;;;;;5065651;28;20429;-90
2022/07/22 05:12:09;;;;;;;12.63;9.87;;;;;;;;;;5071410;28;20424;-90
2022/07/22 05:14:35;;;;;;;6.87;5.50;;;;;;;;;;5056537;28;20417;-90
2022/07/22 05:17:01;;;;;;;6.53;6.13;;;;;;;;;;5054338;28;20437;-88
2022/07/22 05:19:27;;;;;;;5.97;5.37;;;;;;;;;;5077377;28;20420;-91
2022/07/22 05:21:53;;;;;;;7.67;6.40;;;;;;;;;;5057779;28;20425;-90
2022/07/22 05:24:19;;;;;;;6.17;5.53;;;;;;;;;;5054903;28;20820;-91
2022/07/22 05:26:45;;;;;;;5.60;5.13;;;;;;;;;;5056864;28;20497;-91
2022/07/22 05:29:11;;;;;;;6.63;5.80;;;;;;;;;;5060360;28;20935;-92
2022/07/22 05:31:37;;;;;;;6.37;5.83;;;;;;;;;;5058940;28;20481;-90
2022/07/22 05:34:03;;;;;;;8.60;5.60;;;;;;;;;;5057813;28;20440;-90
2022/07/22 05:36:34;;;;;;;9.80;5.80;;;;;;;;;;5054623;28;20468;-90
2022/07/22 05:39:00;;;;;;;8.87;6.20;;;;;;;;;;5050887;28;20477;-91
2022/07/22 05:41:26;;;;;;;5.80;5.20;;;;;;;;;;5054221;28;20453;-91
2022/07/22 05:43:52;;;;;;;6.47;5.80;;;;;;;;;;5056658;28;20433;-91
2022/07/22 05:46:18;;;;;;;6.53;5.97;;;;;;;;;;5056758;28;20892;-90
2022/07/22 05:48:44;;;;;;;6.97;6.43;;;;;;;;;;5067400;28;20483;-90
2022/07/22 05:51:12;;;;;;;6.47;5.83;;;;;;;;;;5064859;28;20429;-91
2022/07/22 05:53:38;;;;;;;9.83;7.00;;;;;;;;;;5057781;28;20449;-90
2022/07/22 05:56:04;;;;;;;11.33;6.47;;;;;;;;;;5058023;28;20452;-89
2022/07/22 05:58:31;;;;;;;6.17;5.80;;;;;;;;;;5077808;28;20479;-90
2022/07/22 06:00:58;;;;;;;6.50;4.47;;;;;;;;;;5054423;28;20429;-89
2022/07/22 06:03:24;;;;;;;8.20;4.90;;;;;;;;;;5071577;28;20470;-90
2022/07/22 06:05:50;;;;;;;4.60;4.20;;;;;;;;;;5056929;28;20464;-90
2022/07/22 06:08:16;;;;;;;6.77;5.00;;;;;;;;;;5063291;28;20771;-89
2022/07/22 06:10:42;;;;;;;8.70;5.30;;;;;;;;;;5072536;28;20401;-88
2022/07/22 06:13:08;;;;;;;8.13;4.33;;;;;;;;;;5060524;28;20439;-88
2022/07/22 06:15:34;;;;;;;4.13;3.93;;;;;;;;;;5058293;28;20452;-89
2022/07/22 06:18:00;;;;;;;4.80;4.50;;;;;;;;;;5060505;28;20767;-89
2022/07/22 06:20:26;;;;;;;5.80;4.37;;;;;;;;;;5058652;28;20543;-89
2022/07/22 06:22:52;;;;;;;5.53;4.67;;;;;;;;;;5059101;28;20417;-88
2022/07/22 06:25:18;;;;;;;4.70;4.37;;;;;;;;;;5059986;28;20495;-89
2022/07/22 06:27:44;;;;;;;4.50;4.20;;;;;;;;;;5062127;28;20425;-89
2022/07/22 06:30:10;;;;;;;5.30;4.67;;;;;;;;;;5063013;28;20434;-88
2022/07/22 06:32:36;;;;;;;5.60;4.77;;;;;;;;;;5036223;28;20410;-88
2022/07/22 06:35:03;;;;;;;5.83;5.40;;;;;;;;;;5067073;28;20429;-87
2022/07/22 06:37:29;;;;;;;5.93;5.40;;;;;;;;;;5043655;28;20579;-90
2022/07/22 06:39:55;;;;;;;7.20;4.93;;;;;;;;;;5060697;28;20421;-89
2022/07/22 06:42:22;;;;;;;4.90;4.60;;;;;;;;;;5065657;28;20429;-89
2022/07/22 06:44:48;;;;;;;6.23;5.67;;;;;;;;;;5044230;28;20441;-90
2022/07/22 06:47:14;;;;;;;4.63;4.27;;;;;;;;;;5036742;28;20441;-89
2022/07/22 06:49:40;;;;;;;8.40;4.63;;;;;;;;;;5051656;28;20454;-90
2022/07/22 06:52:06;;;;;;;4.50;4.20;;;;;;;;;;5062289;28;20445;-87
2022/07/22 06:54:32;;;;;;;5.80;5.30;;;;;;;;;;5055737;28;20832;-88
2022/07/22 06:56:58;;;;;;;7.73;4.10;;;;;;;;;;5045741;28;20446;-89
2022/07/22 06:59:25;;;;;;;4.93;4.53;;;;;;;;;;5069440;28;20457;-88
2022/07/22 07:01:51;;;;;;;4.87;4.40;;;;;;;;;;5031921;28;20434;-89
2022/07/22 07:04:18;;;;;;;5.27;4.10;;;;;;;;;;5037024;28;20796;-89
2022/07/22 07:06:44;;;;;;;4.40;4.00;;;;;;;;;;5040305;28;20429;-88
2022/07/22 07:09:10;;;;;;;5.70;4.00;;;;;;;;;;5042934;28;20490;-88
2022/07/22 07:11:36;;;;;;;3.53;3.33;;;;;;;;;;5038974;28;20406;-89
2022/07/22 07:14:02;;;;;;;3.80;3.40;;;;;;;;;;5038864;28;20429;-90
2022/07/22 07:16:29;;;;;;;5.23;4.73;;;;;;;;;;5054743;28;20438;-86
2022/07/22 07:18:55;;;;;;;4.83;4.50;;;;;;;;;;5033248;28;20470;-89
2022/07/22 07:21:21;;;;;;;4.77;4.33;;;;;;;;;;5051512;28;20450;-90
2022/07/22 07:23:47;;;;;;;3.83;3.53;;;;;;;;;;5061241;28;20803;-89
2022/07/22 07:26:13;;;;;;;11.73;4.10;;;;;;;;;;5051206;28;20596;-89
2022/07/22 07:28:39;;;;;;;4.17;3.83;;;;;;;;;;5015583;28;20453;-89
2022/07/22 07:31:06;;;;;;;3.30;3.20;;;;;;;;;;5011622;28;20439;-90
2022/07/22 07:33:35;;;;;;;3.57;3.20;;;;;;;;;;5048955;28;20490;-90
2022/07/22 07:36:01;;;;;;;5.20;4.20;;;;;;;;;;5044227;28;20422;-89
2022/07/22 07:38:27;;;;;;;4.77;3.53;;;;;;;;;;5021550;28;20478;-90
2022/07/22 07:40:57;;;;;;;5.20;4.70;;;;;;;;;;5025795;28;20476;-89
2022/07/22 07:43:23;;;;;;;14.43;12.10;;;;;;;;;;5026883;28;20484;-90
2022/07/22 07:45:49;;;;;;;4.20;3.80;;;;;;;;;;5017781;28;20511;-89
2022/07/22 07:48:15;;;;;;;6.67;4.30;;;;;;;;;;5018902;28;20578;-91
2022/07/22 07:50:41;;;;;;;3.63;3.40;;;;;;;;;;5010469;28;20526;-91
2022/07/22 07:53:08;;;;;;;3.30;3.20;;;;;;;;;;5014825;28;20423;-90
2022/07/22 07:55:39;;;;;;;5.27;4.90;;;;;;;;;;5029977;28;20443;-88
2022/07/22 07:58:05;;;;;;;5.83;3.60;;;;;;;;;;5015372;28;20466;-87
2022/07/22 08:00:33;;;;;;;3.50;3.20;;;;;;;;;;5024989;28;20433;-91
2022/07/22 08:02:59;;;;;;;6.80;3.73;;;;;;;;;;5032728;28;20455;-89
2022/07/22 08:05:28;;;;;;;5.47;3.60;;;;;;;;;;5021453;28;20426;-91
2022/07/22 08:08:05;;;;;;;3.63;3.30;;;;;;;;;;5026266;28;20425;-93
2022/07/22 08:10:34;;;;;;;4.07;3.77;;;;;;;;;;5020876;28;20435;-95
2022/07/22 08:13:04;;;;;;;3.80;3.60;;;;;;;;;;5020544;28;20507;-93
2022/07/22 08:15:30;;;;;;;4.10;3.73;;;;;;;;;;5021877;28;20446;-88
2022/07/22 08:17:57;;;;;;;5.73;5.33;;;;;;;;;;5023021;28;20458;-91
2022/07/22 08:20:29;;;;;;;6.67;6.20;;;;;;;;;;5022619;28;20458;-92
2022/07/22 08:22:55;;;;;;;7.40;7.00;;;;;;;;;;5025432;28;20443;-94
2022/07/22 08:25:22;;;;;;;6.97;6.07;;;;;;;;;;5044159;28;20460;-93
2022/07/22 08:27:53;;;;;;;5.70;5.30;;;;;;;;;;5043199;28;20691;-92
2022/07/22 08:30:36;;;;;;;5.43;4.93;;;;;;;;;;5054232;28;20696;-91
2022/07/22 08:33:05;;;;;;;5.07;4.67;;;;;;;;;;5043849;28;20425;-90
2022/07/22 08:35:32;;;;;;;4.90;4.60;;;;;;;;;;5072470;28;20426;-92
2022/07/22 08:37:58;;;;;;;4.87;4.67;;;;;;;;;;5084327;28;20448;-92
2022/07/22 08:40:39;;;;;;;8.57;7.73;;;;;;;;;;5047394;28;20441;-92
2022/07/22 08:43:14;;;;;;;8.70;7.90;;;;;;;;;;5035219;28;20429;-91
2022/07/22 08:45:40;;;;;;;7.73;7.13;;;;;;;;;;5051418;28;20487;-93
2022/07/22 08:48:06;;;;;;;8.80;8.00;;;;;;;;;;5043805;28;20441;-91
2022/07/22 08:50:33;;;;;;;9.70;9.00;;;;;;;;;;5063183;28;20425;-90
2022/07/22 08:52:59;;;;;;;11.10;10.10;;;;;;;;;;5064696;28;20516;-91
2022/07/22 08:55:25;;;;;;;13.23;11.90;;;;;;;;;;5083122;28;20429;-92
2022/07/22 08:57:51;;;;;;;18.70;14.13;;;;;;;;;;5041705;28;20595;-90
2022/07/22 09:00:19;;;;;;;13.93;12.50;;;;;;;;;;5078281;28;21033;-92
2022/07/22 09:02:45;;;;;;;18.37;16.37;;;;;;;;;;5036400;28;20418;-93
2022/07/22 09:05:14;;;;;;;16.40;14.63;;;;;;;;;;5048442;28;20434;-93
2022/07/22 09:07:46;;;;;;;20.60;17.00;;;;;;;;;;5072651;28;20670;-93
2022/07/22 09:10:16;;;;;;;23.20;19.40;;;;;;;;;;5032366;28;20419;-95
2022/07/22 09:12:59;;;;;;;27.27;18.47;;;;;;;;;;5058213;28;20430;-91
2022/07/22 09:15:29;;;;;;;22.00;17.33;;;;;;;;;;5068322;28;20440;-91
2022/07/22 09:18:02;;;;;;;23.10;18.03;;;;;;;;;;5054507;28;20544;-93
2022/07/22 09:20:29;;;;;;;23.50;19.20;;;;;;;;;;5046343;28;20453;-93
2022/07/22 09:23:00;;;;;;;29.60;21.60;;;;;;;;;;5052456;28;20455;-93
2022/07/22 09:25:29;;;;;;;27.10;21.57;;;;;;;;;;5053538;28;20491;-90
2022/07/22 09:27:57;;;;;;;31.27;21.13;;;;;;;;;;5067063;28;20405;-90
2022/07/22 09:30:27;;;;;;;31.53;21.13;;;;;;;;;;5084773;28;20445;-92
2022/07/22 09:32:56;;;;;;;25.23;19.70;;;;;;;;;;5084295;28;20401;-91
2022/07/22 09:35:26;;;;;;;22.97;19.37;;;;;;;;;;5065187;28;20470;-93
2022/07/22 09:37:55;;;;;;;27.63;19.97;;;;;;;;;;5084943;28;20543;-94
2022/07/22 09:40:23;;;;;;;31.03;22.43;;;;;;;;;;5067949;28;20448;-93
2022/07/22 09:42:57;;;;;;;27.40;21.37;;;;;;;;;;5088038;28;20865;-94
2022/07/22 09:45:26;;;;;;;30.10;20.93;;;;;;;;;;5072742;28;20444;-89
2022/07/22 09:47:54;;;;;;;31.70;22.10;;;;;;;;;;5091818;28;20415;-91
2022/07/22 09:50:20;;;;;;;27.97;21.20;;;;;;;;;;5075112;28;20431;-90
2022/07/22 09:52:49;;;;;;;29.50;21.50;;;;;;;;;;5184023;22;20484;-93
2022/07/22 09:55:16;;;;;;;30.10;23.17;;;;;;;;;;5069837;28;20444;-92
2022/07/22 09:57:43;;;;;;;31.90;23.27;;;;;;;;;;5060887;28;20464;-88
2022/07/22 10:00:09;;;;;;;28.27;21.43;;;;;;;;;;5072384;28;20519;-87
2022/07/22 10:02:46;;;;;;;29.03;22.10;;;;;;;;;;5055732;28;20522;-88
2022/07/22 10:05:14;;;;;;;29.93;22.57;;;;;;;;;;5291349;22;20550;-87
2022/07/22 10:07:41;;;;;;;32.83;23.80;;;;;;;;;;5035924;28;20499;-87
2022/07/22 10:10:09;;;;;;;32.97;23.87;;;;;;;;;;5055190;28;20441;-89
2022/07/22 10:12:36;;;;;;;29.70;23.77;;;;;;;;;;5039576;28;20444;-87
2022/07/22 10:15:14;;;;;;;29.38;23.52;;;;;;;;;;4774978;28;10001403;-88
2022/07/22 10:17:45;;;;;;;34.03;25.33;;;;;;;;;;5046931;28;20411;-92
2022/07/22 10:20:12;;;;;;;33.57;26.33;;;;;;;;;;5041810;28;20467;-90
2022/07/22 10:22:47;;;;;;;32.30;23.70;;;;;;;;;;5206827;22;20588;-87
2022/07/22 10:25:14;;;;;;;38.40;25.10;;;;;;;;;;5088485;28;20450;-88
2022/07/22 10:27:51;;;;;;;29.37;24.53;;;;;;;;;;5090817;28;20443;-91
2022/07/22 10:30:25;;;;;;;35.20;26.00;;;;;;;;;;5097047;28;20464;-92
2022/07/22 10:33:07;;;;;;;33.60;24.27;;;;;;;;;;5080118;28;20468;-91
2022/07/22 10:35:36;;;;;;;34.93;24.13;;;;;;;;;;5085873;28;20429;-92
2022/07/22 10:38:04;;;;;;;34.00;25.37;;;;;;;;;;5091677;28;20452;-91
2022/07/22 10:40:49;;;;;;;21.60;17.80;;;;;;;;;;5091486;28;20428;-92
2022/07/22 10:43:25;;;;;;;22.00;19.07;;;;;;;;;;5088334;28;20432;-93
2022/07/22 10:45:51;;;;;;;23.70;19.43;;;;;;;;;;5086087;28;20419;-93
2022/07/22 10:48:18;;;;;;;23.27;19.90;;;;;;;;;;5097219;28;20428;-92
2022/07/22 10:50:46;;;;;;;23.47;20.70;;;;;;;;;;5083137;28;20424;-92
2022/07/22 10:53:14;;;;;;;24.03;20.20;;;;;;;;;;5087155;28;20911;-91
2022/07/22 10:55:59;;;;;;;23.93;19.37;;;;;;;;;;5085354;28;20435;-88
2022/07/22 10:58:35;;;;;;;26.17;19.43;;;;;;;;;;5091384;28;20582;-91
2022/07/22 11:01:05;;;;;;;25.17;19.40;;;;;;;;;;5099842;28;20444;-89
2022/07/22 11:03:32;;;;;;;23.63;19.70;;;;;;;;;;5097985;28;20968;-90
2022/07/22 11:06:15;;;;;;;22.20;19.63;;;;;;;;;;5086683;28;20455;-89
2022/07/22 11:09:00;;;;;;;22.83;19.90;;;;;;;;;;5087267;28;21027;-89
2022/07/22 11:11:49;;;;;;;22.20;19.50;;;;;;;;;;5098955;28;20952;-91
2022/07/22 11:14:25;;;;;;;19.20;17.20;;;;;;;;;;5094664;28;20424;-89
2022/07/22 11:16:54;;;;;;;18.63;16.67;;;;;;;;;;5088863;28;20463;-91
2022/07/22 11:19:25;;;;;;;23.40;20.87;;;;;;;;;;5088518;28;20488;-91
2022/07/22 11:21:52;;;;;;;23.87;21.37;;;;;;;;;;5096332;28;20435;-91
2022/07/22 11:24:19;;;;;;;22.10;18.97;;;;;;;;;;5083255;28;20454;-92
2022/07/22 11:26:47;;;;;;;17.67;16.10;;;;;;;;;;5097301;28;20453;-91
2022/07/22 11:29:18;;;;;;;20.40;18.40;;;;;;;;;;5094109;28;20527;-89
2022/07/22 11:31:44;;;;;;;20.27;18.27;;;;;;;;;;5099070;28;20427;-91
2022/07/22 11:34:12;;;;;;;19.83;17.83;;;;;;;;;;5083001;28;20926;-90
2022/07/22 11:36:42;;;;;;;20.10;18.00;;;;;;;;;;5096699;28;21039;-91
2022/07/22 11:39:09;;;;;;;19.13;17.30;;;;;;;;;;5095586;28;20972;-91
2022/07/22 11:41:36;;;;;;;20.70;18.63;;;;;;;;;;5088776;28;20463;-91
2022/07/22 11:44:02;;;;;;;21.73;19.73;;;;;;;;;;5087716;28;20793;-91
2022/07/22 11:46:29;;;;;;;21.33;19.03;;;;;;;;;;5107576;28;20443;-91
2022/07/22 11:48:58;;;;;;;23.00;20.50;;;;;;;;;;5083900;28;20428;-90
2022/07/22 11:51:29;;;;;;;22.93;20.63;;;;;;;;;;5093447;28;20431;-90
2022/07/22 11:53:58;;;;;;;22.53;20.13;;;;;;;;;;5095036;28;20428;-90
2022/07/22 11:56:25;;;;;;;24.43;21.90;;;;;;;;;;5099682;28;20419;-89
2022/07/22 11:58:55;;;;;;;21.90;19.60;;;;;;;;;;5111962;28;20542;-90
2022/07/22 12:01:22;;;;;;;23.60;21.20;;;;;;;;;;5097316;28;20443;-90
2022/07/22 12:03:49;;;;;;;27.70;22.63;;;;;;;;;;5085382;28;20737;-90
2022/07/22 12:06:16;;;;;;;22.93;19.67;;;;;;;;;;5088342;28;20435;-89
2022/07/22 12:08:46;;;;;;;23.13;20.63;;;;;;;;;;5090768;28;20431;-91
2022/07/22 12:11:16;;;;;;;22.10;19.60;;;;;;;;;;5099661;28;20442;-90
2022/07/22 12:13:43;;;;;;;24.10;21.70;;;;;;;;;;5103118;28;20460;-90
2022/07/22 12:16:27;;;;;;;25.63;22.93;;;;;;;;;;5100403;28;21021;-90
2022/07/22 12:19:12;;;;;;;20.90;18.83;;;;;;;;;;5094298;28;20475;-92
2022/07/22 12:21:57;;;;;;;22.33;20.00;;;;;;;;;;5102701;28;20501;-89
2022/07/22 12:24:34;;;;;;;21.63;19.50;;;;;;;;;;5094517;28;20892;-91
2022/07/22 12:27:06;;;;;;;20.77;18.83;;;;;;;;;;5085748;28;20478;-93
2022/07/22 12:29:38;;;;;;;20.20;18.47;;;;;;;;;;5088084;28;20439;-92
2022/07/22 12:32:04;;;;;;;19.60;17.57;;;;;;;;;;5094958;28;20497;-89
2022/07/22 12:34:33;;;;;;;20.43;18.60;;;;;;;;;;5084933;28;20934;-89
2022/07/22 12:37:03;;;;;;;22.13;19.90;;;;;;;;;;5096885;28;20546;-88
2022/07/22 12:39:29;;;;;;;21.47;18.93;;;;;;;;;;5080122;28;20428;-89
2022/07/22 12:41:55;;;;;;;17.67;16.00;;;;;;;;;;5086515;28;20425;-91
2022/07/22 12:44:23;;;;;;;18.40;16.80;;;;;;;;;;5096407;28;20847;-89
2022/07/22 12:46:53;;;;;;;17.53;16.03;;;;;;;;;;5089772;28;20479;-91
2022/07/22 12:49:34;;;;;;;16.77;15.47;;;;;;;;;;5087537;28;20428;-89
2022/07/22 12:52:08;;;;;;;17.50;15.77;;;;;;;;;;5080553;28;20522;-88
2022/07/22 12:54:38;;;;;;;21.23;19.10;;;;;;;;;;5096484;28;20481;-88
2022/07/22 12:57:04;;;;;;;19.43;17.83;;;;;;;;;;5098426;28;20446;-91
2022/07/22 12:59:30;;;;;;;19.52;16.60;;;;;;;;;;4381048;28;10000720;-90
2022/07/22 13:01:56;;;;;;;17.80;16.13;;;;;;;;;;5095241;28;20202;-90
2022/07/22 13:04:22;;;;;;;20.17;18.37;;;;;;;;;;5081513;28;20968;-89
2022/07/22 13:06:48;;;;;;;16.40;15.07;;;;;;;;;;5096918;28;20420;-90
2022/07/22 13:09:15;;;;;;;17.20;15.70;;;;;;;;;;5100856;28;20475;-92
2022/07/22 13:11:44;;;;;;;17.97;16.40;;;;;;;;;;5101846;28;20831;-89
2022/07/22 13:14:14;;;;;;;16.30;14.83;;;;;;;;;;5099017;28;20704;-91
2022/07/22 13:16:40;;;;;;;13.80;12.80;;;;;;;;;;5096069;28;20420;-94
2022/07/22 13:19:06;;;;;;;16.70;15.30;;;;;;;;;;5085205;28;20468;-91
2022/07/22 13:21:32;;;;;;;16.03;14.53;;;;;;;;;;5110631;28;20431;-90
2022/07/22 13:24:34;;;;;;;15.87;14.37;;;;;;;;;;5092007;28;20574;-93
2022/07/22 13:27:00;;;;;;;17.00;15.63;;;;;;;;;;5098441;28;20427;-90
2022/07/22 13:29:27;;;;;;;17.27;15.80;;;;;;;;;;5101414;28;21116;-92
2022/07/22 13:31:53;;;;;;;17.20;15.50;;;;;;;;;;5095785;28;20433;-93
2022/07/22 13:34:21;;;;;;;17.60;16.10;;;;;;;;;;5096763;28;20442;-92
2022/07/22 13:36:51;;;;;;;18.10;16.37;;;;;;;;;;5096178;28;20443;-90
2022/07/22 13:39:17;;;;;;;17.63;16.07;;;;;;;;;;5106484;28;20701;-91
2022/07/22 13:41:43;;;;;;;17.83;16.00;;;;;;;;;;5089932;28;20431;-91
2022/07/22 13:44:18;;;;;;;18.90;17.23;;;;;;;;;;5116025;28;20784;-91
2022/07/22 13:46:50;;;;;;;18.67;16.87;;;;;;;;;;5105234;28;20446;-92
2022/07/22 13:49:16;;;;;;;16.13;14.83;;;;;;;;;;5127130;28;20398;-90
2022/07/22 13:51:50;;;;;;;18.60;16.87;;;;;;;;;;5088333;28;20447;-91
2022/07/22 13:54:25;;;;;;;17.93;16.50;;;;;;;;;;5089947;28;20450;-90
2022/07/22 13:56:51;;;;;;;18.80;17.07;;;;;;;;;;5091568;28;20420;-92
2022/07/22 13:59:20;;;;;;;17.37;15.97;;;;;;;;;;5092919;28;20721;-88
2022/07/22 14:01:56;;;;;;;17.73;16.33;;;;;;;;;;5093219;28;20790;-90
2022/07/22 14:07:13;;;;;;;18.77;17.07;;;;;;;;;;5082589;28;20443;-91
2022/07/22 14:09:40;;;;;;;17.20;15.60;;;;;;;;;;5073597;28;20497;-89
2022/07/22 14:12:12;;;;;;;19.07;17.30;;;;;;;;;;5093094;28;20435;-91
2022/07/22 14:14:45;;;;;;;19.00;17.30;;;;;;;;;;5083458;28;20440;-91
2022/07/22 14:17:14;;;;;;;18.47;16.83;;;;;;;;;;5086300;28;20443;-89
2022/07/22 14:19:42;;;;;;;18.57;17.13;;;;;;;;;;5095071;28;20440;-89
2022/07/22 14:22:09;;;;;;;19.73;17.87;;;;;;;;;;5089257;28;20451;-87
2022/07/22 14:24:35;;;;;;;20.10;18.50;;;;;;;;;;5087483;28;20447;-92
2022/07/22 14:27:01;;;;;;;20.63;18.47;;;;;;;;;;5098567;28;20438;-91
2022/07/22 14:29:27;;;;;;;20.43;18.63;;;;;;;;;;5088503;28;20400;-88
2022/07/22 14:32:00;;;;;;;21.73;19.73;;;;;;;;;;5090355;28;20443;-89
2022/07/22 14:34:33;;;;;;;20.77;19.03;;;;;;;;;;5088801;28;20423;-90
2022/07/22 14:36:59;;;;;;;20.23;18.47;;;;;;;;;;5082500;28;20436;-90
2022/07/22 14:39:25;;;;;;;18.40;17.00;;;;;;;;;;5084527;28;20474;-88
2022/07/22 14:41:52;;;;;;;20.40;18.57;;;;;;;;;;5094852;28;20448;-88
2022/07/22 14:44:18;;;;;;;20.83;18.73;;;;;;;;;;5082063;28;20438;-86
2022/07/22 14:46:53;;;;;;;20.03;18.03;;;;;;;;;;5087648;28;20427;-87
2022/07/22 14:52:35;;;;;;;19.53;17.73;;;;;;;;;;5054804;22;20477;-88
2022/07/22 14:55:04;;;;;;;18.67;17.10;;;;;;;;;;5037745;28;20433;-87
2022/07/22 14:57:32;;;;;;;17.90;16.40;;;;;;;;;;5045413;28;20507;-88
2022/07/22 15:00:01;;;;;;;18.20;16.60;;;;;;;;;;5029721;28;20556;-88
2022/07/22 15:02:27;;;;;;;18.50;16.90;;;;;;;;;;5018958;28;21041;-86